Helena, Missouri
Current Conditions -  °F | °C
As of 10:27 AM on Monday 24 Nov 2014 (Local Time) from KSTJ Reporting Station
Overcast Overcast  
Wind Chill: 23°   Ceiling: 2800
Heat Index: 34°   Visibility: 10mi
Dew Point: 24°   Wind: 17mph
Humidity: 67%   Direction: 310°NW
Pressure: 29.74"   Gusts: NA
Location:  39.91°N, 94.65°W
Report Text: KSTJ 241627Z 31015KT 10SM BKN028 OVC037 01/M04 A2974 RMK AO2 T00111044
Loading
Personal Weather Stations






























Interactive Weather Map New forecast layout! Learn more

10-Day Weather Forecast

Advertisements
Track Severe Weather on mobile